Current Conditions
Light Rain
Showers



Pressure
1001.92 (hPa) - 29.59 (inHG)
Visibility

10.0 (km) - 6.2 (miles)
   Temperature
9  °C
48°F
8  °C
Dewpoint
94  %
 Humidity
   Wind Speed
10  km/h
5  kts
6  mph
2.7  m/s
   Wind Direction
 280°
Due West
   Airport Data
LIME
Location Il Caravaggio International 45 km (27.97 mi)
Metar :LIME 120950Z 28005KT 9999 -RA FEW005 BKN035 09/08 Q1002 NOSIG
Tue 12th November 11:50 am
   Raw Metar Info
Raw METAR is the most common format in the world for the transmission of observational weather data. It is highly standardized through the International Civil Aviation Organization (ICAO), which allows it to be understood throughout most of the world.
   API Info
Data Provided by
https://www.checkwx.com/weather/LIME
   © Info
CSS/SVG/PHP scripts were developed by weather34.com for use in the weather34 template © 2015-2019

Guide Info provided by Metar-Wikipedia